Terminal Aerodrome Forecast
Issued by NWS Blacksburg, VA

Home | Current Version | Previous Version | Text Only | Print | Product List | Glossary On
Versions: 1 2 3 4 5 6 7 8 9 10 11 12 13 14 15
000
FTUS41 KRNK 230558 AAC
TAFBLF
TAF AMD
KBLF 230558Z 2306/2406 14009G19KT P6SM OVC025 WS020/16035KT
     FM231700 14013KT P6SM -SHRA OVC030 WS020/15040KT
     FM240000 17011KT 1SM +SHRA OVC040 WS020/24035KT
     FM240300 21009KT 3SM SHRA OVC050=

USA.gov is the U.S. government's official web portal to all federal, state and local government web resources and services.